sensor_id;sensor_type;location;lat;lon;timestamp;P1;durP1;ratioP1;P2;durP2;ratioP2
18580;SDS011;9420;50.876;7.012;2024-01-06T00:00:48;3.10;;;2.30;;
18580;SDS011;9420;50.876;7.012;2024-01-06T00:03:15;4.77;;;2.50;;
18580;SDS011;9420;50.876;7.012;2024-01-06T00:05:41;3.00;;;2.40;;
18580;SDS011;9420;50.876;7.012;2024-01-06T00:08:08;3.23;;;2.07;;
18580;SDS011;9420;50.876;7.012;2024-01-06T00:10:34;4.97;;;2.07;;
18580;SDS011;9420;50.876;7.012;2024-01-06T00:13:01;2.63;;;2.20;;
18580;SDS011;9420;50.876;7.012;2024-01-06T00:15:30;3.10;;;1.83;;
18580;SDS011;9420;50.876;7.012;2024-01-06T00:17:56;2.50;;;1.97;;
18580;SDS011;9420;50.876;7.012;2024-01-06T00:20:23;4.47;;;2.60;;
18580;SDS011;9420;50.876;7.012;2024-01-06T00:22:49;4.00;;;2.60;;
18580;SDS011;9420;50.876;7.012;2024-01-06T00:25:16;4.10;;;3.00;;
18580;SDS011;9420;50.876;7.012;2024-01-06T00:27:43;3.83;;;3.10;;
18580;SDS011;9420;50.876;7.012;2024-01-06T00:30:10;4.27;;;3.40;;
18580;SDS011;9420;50.876;7.012;2024-01-06T00:32:38;4.17;;;3.20;;
18580;SDS011;9420;50.876;7.012;2024-01-06T00:35:05;4.90;;;3.30;;
18580;SDS011;9420;50.876;7.012;2024-01-06T00:37:32;8.03;;;4.10;;
18580;SDS011;9420;50.876;7.012;2024-01-06T00:39:59;4.80;;;3.40;;
18580;SDS011;9420;50.876;7.012;2024-01-06T00:42:25;7.70;;;3.77;;
18580;SDS011;9420;50.876;7.012;2024-01-06T00:44:52;6.47;;;4.30;;
18580;SDS011;9420;50.876;7.012;2024-01-06T00:47:19;7.03;;;4.00;;
18580;SDS011;9420;50.876;7.012;2024-01-06T00:49:48;8.03;;;5.53;;
18580;SDS011;9420;50.876;7.012;2024-01-06T00:52:15;7.20;;;5.17;;
18580;SDS011;9420;50.876;7.012;2024-01-06T00:54:42;5.80;;;4.40;;
18580;SDS011;9420;50.876;7.012;2024-01-06T00:57:08;8.50;;;5.57;;
18580;SDS011;9420;50.876;7.012;2024-01-06T00:59:35;6.63;;;5.27;;
18580;SDS011;9420;50.876;7.012;2024-01-06T01:02:01;7.27;;;5.97;;
18580;SDS011;9420;50.876;7.012;2024-01-06T01:04:28;9.57;;;5.73;;
18580;SDS011;9420;50.876;7.012;2024-01-06T01:06:56;7.77;;;6.00;;
18580;SDS011;9420;50.876;7.012;2024-01-06T01:09:22;7.43;;;5.40;;
18580;SDS011;9420;50.876;7.012;2024-01-06T01:11:49;7.47;;;6.13;;
18580;SDS011;9420;50.876;7.012;2024-01-06T01:14:16;10.03;;;6.23;;
18580;SDS011;9420;50.876;7.012;2024-01-06T01:16:43;12.17;;;5.87;;
18580;SDS011;9420;50.876;7.012;2024-01-06T01:19:10;10.77;;;5.67;;
18580;SDS011;9420;50.876;7.012;2024-01-06T01:21:37;8.70;;;6.23;;
18580;SDS011;9420;50.876;7.012;2024-01-06T01:24:05;9.57;;;7.00;;
18580;SDS011;9420;50.876;7.012;2024-01-06T01:26:32;10.03;;;6.70;;
18580;SDS011;9420;50.876;7.012;2024-01-06T01:28:58;7.90;;;6.73;;
18580;SDS011;9420;50.876;7.012;2024-01-06T01:31:25;12.63;;;8.67;;
18580;SDS011;9420;50.876;7.012;2024-01-06T01:33:52;10.23;;;7.87;;
18580;SDS011;9420;50.876;7.012;2024-01-06T01:36:18;12.97;;;8.17;;
18580;SDS011;9420;50.876;7.012;2024-01-06T01:38:45;14.73;;;8.07;;
18580;SDS011;9420;50.876;7.012;2024-01-06T01:41:13;13.67;;;9.30;;
18580;SDS011;9420;50.876;7.012;2024-01-06T01:43:39;13.07;;;9.40;;
18580;SDS011;9420;50.876;7.012;2024-01-06T01:46:06;12.23;;;8.97;;
18580;SDS011;9420;50.876;7.012;2024-01-06T01:48:32;11.20;;;8.27;;
18580;SDS011;9420;50.876;7.012;2024-01-06T01:50:59;14.30;;;9.27;;
18580;SDS011;9420;50.876;7.012;2024-01-06T01:53:26;13.97;;;9.33;;
18580;SDS011;9420;50.876;7.012;2024-01-06T01:55:53;12.60;;;8.63;;
18580;SDS011;9420;50.876;7.012;2024-01-06T01:58:21;15.13;;;8.33;;
18580;SDS011;9420;50.876;7.012;2024-01-06T02:00:48;12.03;;;9.23;;
18580;SDS011;9420;50.876;7.012;2024-01-06T02:03:15;12.10;;;8.93;;
18580;SDS011;9420;50.876;7.012;2024-01-06T02:05:42;11.67;;;8.83;;
18580;SDS011;9420;50.876;7.012;2024-01-06T02:08:09;12.23;;;8.60;;
18580;SDS011;9420;50.876;7.012;2024-01-06T02:10:36;14.53;;;8.47;;
18580;SDS011;9420;50.876;7.012;2024-01-06T02:13:09;13.77;;;8.37;;
18580;SDS011;9420;50.876;7.012;2024-01-06T02:15:38;11.07;;;8.50;;
18580;SDS011;9420;50.876;7.012;2024-01-06T02:18:05;12.90;;;7.93;;
18580;SDS011;9420;50.876;7.012;2024-01-06T02:20:31;14.50;;;9.40;;
18580;SDS011;9420;50.876;7.012;2024-01-06T02:23:00;16.53;;;10.17;;
18580;SDS011;9420;50.876;7.012;2024-01-06T02:25:27;11.47;;;8.20;;
18580;SDS011;9420;50.876;7.012;2024-01-06T02:27:54;14.60;;;8.73;;
18580;SDS011;9420;50.876;7.012;2024-01-06T02:30:21;12.93;;;9.10;;
18580;SDS011;9420;50.876;7.012;2024-01-06T02:32:47;16.63;;;10.33;;
18580;SDS011;9420;50.876;7.012;2024-01-06T02:35:14;15.13;;;10.37;;
18580;SDS011;9420;50.876;7.012;2024-01-06T02:37:41;13.57;;;9.73;;
18580;SDS011;9420;50.876;7.012;2024-01-06T02:40:09;17.20;;;11.03;;
18580;SDS011;9420;50.876;7.012;2024-01-06T02:42:37;13.20;;;10.10;;
18580;SDS011;9420;50.876;7.012;2024-01-06T02:45:03;19.50;;;12.27;;
18580;SDS011;9420;50.876;7.012;2024-01-06T02:47:31;17.13;;;11.00;;
18580;SDS011;9420;50.876;7.012;2024-01-06T02:49:57;18.53;;;11.40;;
18580;SDS011;9420;50.876;7.012;2024-01-06T02:52:24;21.77;;;12.63;;
18580;SDS011;9420;50.876;7.012;2024-01-06T02:54:50;23.27;;;13.10;;
18580;SDS011;9420;50.876;7.012;2024-01-06T02:57:19;24.83;;;13.80;;
18580;SDS011;9420;50.876;7.012;2024-01-06T02:59:45;18.93;;;12.33;;
18580;SDS011;9420;50.876;7.012;2024-01-06T03:02:13;23.53;;;12.90;;
18580;SDS011;9420;50.876;7.012;2024-01-06T03:04:39;20.77;;;12.93;;
18580;SDS011;9420;50.876;7.012;2024-01-06T03:07:06;22.50;;;13.37;;
18580;SDS011;9420;50.876;7.012;2024-01-06T03:09:32;19.37;;;12.30;;
18580;SDS011;9420;50.876;7.012;2024-01-06T03:11:59;23.67;;;14.23;;
18580;SDS011;9420;50.876;7.012;2024-01-06T03:14:27;22.13;;;13.90;;
18580;SDS011;9420;50.876;7.012;2024-01-06T03:16:54;25.33;;;15.30;;
18580;SDS011;9420;50.876;7.012;2024-01-06T03:19:22;21.37;;;14.27;;
18580;SDS011;9420;50.876;7.012;2024-01-06T03:21:51;23.50;;;15.17;;
18580;SDS011;9420;50.876;7.012;2024-01-06T03:24:17;25.67;;;15.43;;
18580;SDS011;9420;50.876;7.012;2024-01-06T03:26:44;26.83;;;14.97;;
18580;SDS011;9420;50.876;7.012;2024-01-06T03:29:11;27.97;;;16.07;;
18580;SDS011;9420;50.876;7.012;2024-01-06T03:31:41;24.03;;;15.27;;
18580;SDS011;9420;50.876;7.012;2024-01-06T03:34:08;29.60;;;15.50;;
18580;SDS011;9420;50.876;7.012;2024-01-06T03:36:36;28.40;;;16.43;;
18580;SDS011;9420;50.876;7.012;2024-01-06T03:39:02;24.97;;;14.63;;
18580;SDS011;9420;50.876;7.012;2024-01-06T03:41:29;27.60;;;15.20;;
18580;SDS011;9420;50.876;7.012;2024-01-06T03:43:56;28.80;;;16.77;;
18580;SDS011;9420;50.876;7.012;2024-01-06T03:46:22;28.57;;;16.07;;
18580;SDS011;9420;50.876;7.012;2024-01-06T03:48:50;24.63;;;15.33;;
18580;SDS011;9420;50.876;7.012;2024-01-06T03:51:17;31.70;;;16.80;;
18580;SDS011;9420;50.876;7.012;2024-01-06T03:53:44;31.23;;;17.57;;
18580;SDS011;9420;50.876;7.012;2024-01-06T03:56:12;29.87;;;17.30;;
18580;SDS011;9420;50.876;7.012;2024-01-06T03:58:39;30.43;;;17.77;;
18580;SDS011;9420;50.876;7.012;2024-01-06T04:01:06;34.80;;;18.20;;
18580;SDS011;9420;50.876;7.012;2024-01-06T04:03:32;31.90;;;18.30;;
18580;SDS011;9420;50.876;7.012;2024-01-06T04:06:03;36.77;;;18.43;;
18580;SDS011;9420;50.876;7.012;2024-01-06T04:08:29;29.57;;;17.63;;
18580;SDS011;9420;50.876;7.012;2024-01-06T04:10:56;29.80;;;18.70;;
18580;SDS011;9420;50.876;7.012;2024-01-06T04:13:23;31.80;;;19.13;;
18580;SDS011;9420;50.876;7.012;2024-01-06T04:15:49;35.30;;;19.87;;
18580;SDS011;9420;50.876;7.012;2024-01-06T04:18:16;35.00;;;20.33;;
18580;SDS011;9420;50.876;7.012;2024-01-06T04:20:43;38.50;;;20.37;;
18580;SDS011;9420;50.876;7.012;2024-01-06T04:23:11;39.67;;;20.73;;
18580;SDS011;9420;50.876;7.012;2024-01-06T04:25:38;38.70;;;21.27;;
18580;SDS011;9420;50.876;7.012;2024-01-06T04:28:04;37.17;;;21.93;;
18580;SDS011;9420;50.876;7.012;2024-01-06T04:30:31;33.90;;;20.60;;
18580;SDS011;9420;50.876;7.012;2024-01-06T04:32:58;37.93;;;21.43;;
18580;SDS011;9420;50.876;7.012;2024-01-06T04:35:25;34.97;;;19.10;;
18580;SDS011;9420;50.876;7.012;2024-01-06T04:37:51;39.17;;;19.93;;
18580;SDS011;9420;50.876;7.012;2024-01-06T04:40:19;42.83;;;24.00;;
18580;SDS011;9420;50.876;7.012;2024-01-06T04:42:46;40.17;;;21.40;;
18580;SDS011;9420;50.876;7.012;2024-01-06T04:45:13;44.77;;;23.30;;
18580;SDS011;9420;50.876;7.012;2024-01-06T04:47:39;42.93;;;22.57;;
18580;SDS011;9420;50.876;7.012;2024-01-06T04:50:06;42.53;;;22.87;;
18580;SDS011;9420;50.876;7.012;2024-01-06T04:52:33;43.83;;;23.73;;
18580;SDS011;9420;50.876;7.012;2024-01-06T04:55:00;49.40;;;24.33;;
18580;SDS011;9420;50.876;7.012;2024-01-06T04:57:28;41.13;;;22.93;;
18580;SDS011;9420;50.876;7.012;2024-01-06T04:59:55;44.10;;;24.53;;
18580;SDS011;9420;50.876;7.012;2024-01-06T05:02:21;41.87;;;25.07;;
18580;SDS011;9420;50.876;7.012;2024-01-06T05:04:48;45.60;;;24.33;;
18580;SDS011;9420;50.876;7.012;2024-01-06T05:07:15;41.80;;;23.97;;
18580;SDS011;9420;50.876;7.012;2024-01-06T05:09:41;41.17;;;25.03;;
18580;SDS011;9420;50.876;7.012;2024-01-06T05:12:08;45.67;;;25.40;;
18580;SDS011;9420;50.876;7.012;2024-01-06T05:14:36;48.53;;;25.33;;
18580;SDS011;9420;50.876;7.012;2024-01-06T05:17:03;45.93;;;24.43;;
18580;SDS011;9420;50.876;7.012;2024-01-06T05:19:29;46.77;;;24.87;;
18580;SDS011;9420;50.876;7.012;2024-01-06T05:21:57;43.07;;;25.50;;
18580;SDS011;9420;50.876;7.012;2024-01-06T05:24:24;43.70;;;24.27;;
18580;SDS011;9420;50.876;7.012;2024-01-06T05:26:50;49.27;;;24.50;;
18580;SDS011;9420;50.876;7.012;2024-01-06T05:29:17;44.97;;;23.63;;
18580;SDS011;9420;50.876;7.012;2024-01-06T05:31:45;43.90;;;23.77;;
18580;SDS011;9420;50.876;7.012;2024-01-06T05:34:14;49.87;;;25.17;;
18580;SDS011;9420;50.876;7.012;2024-01-06T05:36:41;46.93;;;24.60;;
18580;SDS011;9420;50.876;7.012;2024-01-06T05:39:07;49.13;;;25.87;;
18580;SDS011;9420;50.876;7.012;2024-01-06T05:41:37;40.50;;;23.67;;
18580;SDS011;9420;50.876;7.012;2024-01-06T05:44:04;45.27;;;24.37;;
18580;SDS011;9420;50.876;7.012;2024-01-06T05:46:30;46.93;;;26.70;;
18580;SDS011;9420;50.876;7.012;2024-01-06T05:48:58;39.53;;;23.70;;
18580;SDS011;9420;50.876;7.012;2024-01-06T05:51:25;42.37;;;21.50;;
18580;SDS011;9420;50.876;7.012;2024-01-06T05:53:52;35.07;;;19.37;;
18580;SDS011;9420;50.876;7.012;2024-01-06T05:56:22;36.87;;;18.67;;
18580;SDS011;9420;50.876;7.012;2024-01-06T05:58:50;36.13;;;19.63;;
18580;SDS011;9420;50.876;7.012;2024-01-06T06:01:17;35.87;;;18.67;;
18580;SDS011;9420;50.876;7.012;2024-01-06T06:03:44;39.40;;;21.10;;
18580;SDS011;9420;50.876;7.012;2024-01-06T06:06:13;39.83;;;19.43;;
18580;SDS011;9420;50.876;7.012;2024-01-06T06:08:40;43.33;;;21.77;;
18580;SDS011;9420;50.876;7.012;2024-01-06T06:11:07;41.00;;;21.00;;
18580;SDS011;9420;50.876;7.012;2024-01-06T06:13:36;42.17;;;20.33;;
18580;SDS011;9420;50.876;7.012;2024-01-06T06:16:04;37.90;;;19.13;;
18580;SDS011;9420;50.876;7.012;2024-01-06T06:18:30;36.27;;;18.40;;
18580;SDS011;9420;50.876;7.012;2024-01-06T06:20:58;36.80;;;17.53;;
18580;SDS011;9420;50.876;7.012;2024-01-06T06:23:26;31.43;;;17.63;;
18580;SDS011;9420;50.876;7.012;2024-01-06T06:25:53;29.00;;;14.97;;
18580;SDS011;9420;50.876;7.012;2024-01-06T06:28:19;28.17;;;14.27;;
18580;SDS011;9420;50.876;7.012;2024-01-06T06:30:46;25.07;;;13.93;;
18580;SDS011;9420;50.876;7.012;2024-01-06T06:33:13;24.47;;;12.90;;
18580;SDS011;9420;50.876;7.012;2024-01-06T06:35:40;27.27;;;14.90;;
18580;SDS011;9420;50.876;7.012;2024-01-06T06:38:06;27.37;;;13.07;;
18580;SDS011;9420;50.876;7.012;2024-01-06T06:40:34;27.90;;;13.83;;
18580;SDS011;9420;50.876;7.012;2024-01-06T06:43:02;23.40;;;12.50;;
18580;SDS011;9420;50.876;7.012;2024-01-06T06:45:28;21.67;;;13.10;;
18580;SDS011;9420;50.876;7.012;2024-01-06T06:47:55;24.97;;;13.10;;
18580;SDS011;9420;50.876;7.012;2024-01-06T06:50:22;18.63;;;11.93;;
18580;SDS011;9420;50.876;7.012;2024-01-06T06:52:48;18.57;;;11.23;;
18580;SDS011;9420;50.876;7.012;2024-01-06T06:55:15;21.33;;;11.70;;
18580;SDS011;9420;50.876;7.012;2024-01-06T06:57:44;18.20;;;9.33;;
18580;SDS011;9420;50.876;7.012;2024-01-06T07:00:11;16.10;;;10.37;;
18580;SDS011;9420;50.876;7.012;2024-01-06T07:02:40;26.67;;;11.87;;
18580;SDS011;9420;50.876;7.012;2024-01-06T07:05:06;17.03;;;9.43;;
18580;SDS011;9420;50.876;7.012;2024-01-06T07:07:33;19.00;;;9.97;;
18580;SDS011;9420;50.876;7.012;2024-01-06T07:10:00;18.20;;;10.80;;
18580;SDS011;9420;50.876;7.012;2024-01-06T07:12:28;19.70;;;11.63;;
18580;SDS011;9420;50.876;7.012;2024-01-06T07:14:56;19.33;;;10.83;;
18580;SDS011;9420;50.876;7.012;2024-01-06T07:17:23;20.33;;;11.80;;
18580;SDS011;9420;50.876;7.012;2024-01-06T07:19:50;18.13;;;11.17;;
18580;SDS011;9420;50.876;7.012;2024-01-06T07:22:17;21.23;;;12.33;;
18580;SDS011;9420;50.876;7.012;2024-01-06T07:24:44;21.30;;;11.83;;
18580;SDS011;9420;50.876;7.012;2024-01-06T07:27:11;23.57;;;12.67;;
18580;SDS011;9420;50.876;7.012;2024-01-06T07:29:37;25.93;;;12.63;;
18580;SDS011;9420;50.876;7.012;2024-01-06T07:32:06;22.87;;;11.70;;
18580;SDS011;9420;50.876;7.012;2024-01-06T07:34:32;22.67;;;12.07;;
18580;SDS011;9420;50.876;7.012;2024-01-06T07:36:59;22.90;;;12.17;;
18580;SDS011;9420;50.876;7.012;2024-01-06T07:39:26;21.37;;;12.17;;
18580;SDS011;9420;50.876;7.012;2024-01-06T07:41:52;26.27;;;12.03;;
18580;SDS011;9420;50.876;7.012;2024-01-06T07:44:19;23.03;;;12.00;;
18580;SDS011;9420;50.876;7.012;2024-01-06T07:46:49;23.10;;;12.00;;
18580;SDS011;9420;50.876;7.012;2024-01-06T07:49:18;20.37;;;10.77;;
18580;SDS011;9420;50.876;7.012;2024-01-06T07:51:44;33.63;;;12.53;;
18580;SDS011;9420;50.876;7.012;2024-01-06T07:54:11;21.03;;;10.77;;
18580;SDS011;9420;50.876;7.012;2024-01-06T07:56:38;19.63;;;11.60;;
18580;SDS011;9420;50.876;7.012;2024-01-06T07:59:04;23.30;;;11.90;;
18580;SDS011;9420;50.876;7.012;2024-01-06T08:01:31;19.23;;;11.07;;
18580;SDS011;9420;50.876;7.012;2024-01-06T08:03:58;21.57;;;11.60;;
18580;SDS011;9420;50.876;7.012;2024-01-06T08:06:26;24.93;;;12.13;;
18580;SDS011;9420;50.876;7.012;2024-01-06T08:08:53;21.93;;;12.13;;
18580;SDS011;9420;50.876;7.012;2024-01-06T08:11:19;20.70;;;11.07;;
18580;SDS011;9420;50.876;7.012;2024-01-06T08:13:46;22.47;;;11.60;;
18580;SDS011;9420;50.876;7.012;2024-01-06T08:16:13;23.37;;;12.57;;
18580;SDS011;9420;50.876;7.012;2024-01-06T08:18:39;22.80;;;12.67;;
18580;SDS011;9420;50.876;7.012;2024-01-06T08:21:06;23.03;;;11.60;;
18580;SDS011;9420;50.876;7.012;2024-01-06T08:23:34;20.93;;;11.43;;
18580;SDS011;9420;50.876;7.012;2024-01-06T08:26:01;19.63;;;11.73;;
18580;SDS011;9420;50.876;7.012;2024-01-06T08:28:28;19.30;;;11.07;;
18580;SDS011;9420;50.876;7.012;2024-01-06T08:30:55;21.20;;;11.07;;
18580;SDS011;9420;50.876;7.012;2024-01-06T08:33:22;21.33;;;12.23;;
18580;SDS011;9420;50.876;7.012;2024-01-06T08:35:48;23.63;;;11.47;;
18580;SDS011;9420;50.876;7.012;2024-01-06T08:38:15;18.70;;;10.53;;
18580;SDS011;9420;50.876;7.012;2024-01-06T08:40:43;22.47;;;12.17;;
18580;SDS011;9420;50.876;7.012;2024-01-06T08:43:13;23.73;;;12.60;;
18580;SDS011;9420;50.876;7.012;2024-01-06T08:45:40;22.90;;;12.93;;
18580;SDS011;9420;50.876;7.012;2024-01-06T08:48:06;21.97;;;12.13;;
18580;SDS011;9420;50.876;7.012;2024-01-06T08:50:33;24.63;;;11.83;;
18580;SDS011;9420;50.876;7.012;2024-01-06T08:53:00;24.10;;;12.53;;
18580;SDS011;9420;50.876;7.012;2024-01-06T08:55:26;24.70;;;13.37;;
18580;SDS011;9420;50.876;7.012;2024-01-06T08:57:54;22.93;;;12.90;;
18580;SDS011;9420;50.876;7.012;2024-01-06T09:00:21;21.87;;;12.27;;
18580;SDS011;9420;50.876;7.012;2024-01-06T09:02:47;21.27;;;11.20;;
18580;SDS011;9420;50.876;7.012;2024-01-06T09:05:14;24.30;;;13.67;;
18580;SDS011;9420;50.876;7.012;2024-01-06T09:07:41;22.20;;;11.87;;
18580;SDS011;9420;50.876;7.012;2024-01-06T09:10:08;27.70;;;13.40;;
18580;SDS011;9420;50.876;7.012;2024-01-06T09:12:35;24.77;;;12.03;;
18580;SDS011;9420;50.876;7.012;2024-01-06T09:15:03;27.13;;;13.53;;
18580;SDS011;9420;50.876;7.012;2024-01-06T09:17:30;25.80;;;12.67;;
18580;SDS011;9420;50.876;7.012;2024-01-06T09:19:57;26.90;;;12.30;;
18580;SDS011;9420;50.876;7.012;2024-01-06T09:22:24;26.17;;;12.37;;
18580;SDS011;9420;50.876;7.012;2024-01-06T09:24:50;27.60;;;14.13;;
18580;SDS011;9420;50.876;7.012;2024-01-06T09:27:17;26.60;;;12.17;;
18580;SDS011;9420;50.876;7.012;2024-01-06T09:29:44;28.27;;;13.40;;
18580;SDS011;9420;50.876;7.012;2024-01-06T09:32:12;22.73;;;11.77;;
18580;SDS011;9420;50.876;7.012;2024-01-06T09:34:39;23.67;;;12.67;;
18580;SDS011;9420;50.876;7.012;2024-01-06T09:37:06;24.13;;;13.43;;
18580;SDS011;9420;50.876;7.012;2024-01-06T09:39:32;24.43;;;12.90;;
18580;SDS011;9420;50.876;7.012;2024-01-06T09:41:59;22.83;;;12.00;;
18580;SDS011;9420;50.876;7.012;2024-01-06T09:44:26;22.07;;;11.50;;
18580;SDS011;9420;50.876;7.012;2024-01-06T09:46:53;25.23;;;11.90;;
18580;SDS011;9420;50.876;7.012;2024-01-06T09:49:25;22.27;;;12.47;;
18580;SDS011;9420;50.876;7.012;2024-01-06T09:51:55;33.17;;;14.50;;
18580;SDS011;9420;50.876;7.012;2024-01-06T09:54:25;24.53;;;13.07;;
18580;SDS011;9420;50.876;7.012;2024-01-06T09:56:58;24.83;;;12.80;;
18580;SDS011;9420;50.876;7.012;2024-01-06T09:59:25;22.57;;;12.07;;
18580;SDS011;9420;50.876;7.012;2024-01-06T10:01:52;25.43;;;12.90;;
18580;SDS011;9420;50.876;7.012;2024-01-06T10:04:19;24.80;;;14.20;;
18580;SDS011;9420;50.876;7.012;2024-01-06T10:06:47;26.33;;;14.10;;
18580;SDS011;9420;50.876;7.012;2024-01-06T10:09:14;23.87;;;14.03;;
18580;SDS011;9420;50.876;7.012;2024-01-06T10:11:41;23.37;;;13.33;;
18580;SDS011;9420;50.876;7.012;2024-01-06T10:14:08;19.17;;;11.97;;
18580;SDS011;9420;50.876;7.012;2024-01-06T10:16:34;21.43;;;12.87;;
18580;SDS011;9420;50.876;7.012;2024-01-06T10:19:02;24.87;;;12.00;;
18580;SDS011;9420;50.876;7.012;2024-01-06T10:21:29;22.90;;;12.27;;
18580;SDS011;9420;50.876;7.012;2024-01-06T10:23:59;19.33;;;12.10;;
18580;SDS011;9420;50.876;7.012;2024-01-06T10:26:26;23.10;;;12.67;;
18580;SDS011;9420;50.876;7.012;2024-01-06T10:28:53;22.97;;;12.37;;
18580;SDS011;9420;50.876;7.012;2024-01-06T10:31:19;22.97;;;12.67;;
18580;SDS011;9420;50.876;7.012;2024-01-06T10:33:46;18.87;;;11.03;;
18580;SDS011;9420;50.876;7.012;2024-01-06T10:36:13;24.87;;;12.10;;
18580;SDS011;9420;50.876;7.012;2024-01-06T10:38:40;24.87;;;11.80;;
18580;SDS011;9420;50.876;7.012;2024-01-06T10:41:09;22.07;;;12.13;;
18580;SDS011;9420;50.876;7.012;2024-01-06T10:43:38;21.40;;;11.63;;
18580;SDS011;9420;50.876;7.012;2024-01-06T10:46:08;18.67;;;11.37;;
18580;SDS011;9420;50.876;7.012;2024-01-06T10:48:36;17.83;;;9.10;;
18580;SDS011;9420;50.876;7.012;2024-01-06T10:51:07;19.87;;;11.37;;
18580;SDS011;9420;50.876;7.012;2024-01-06T10:53:34;19.20;;;11.10;;
18580;SDS011;9420;50.876;7.012;2024-01-06T10:56:04;19.07;;;10.90;;
18580;SDS011;9420;50.876;7.012;2024-01-06T10:58:34;19.63;;;10.87;;
18580;SDS011;9420;50.876;7.012;2024-01-06T11:01:07;19.07;;;10.20;;
18580;SDS011;9420;50.876;7.012;2024-01-06T11:03:34;18.67;;;10.03;;
18580;SDS011;9420;50.876;7.012;2024-01-06T11:06:02;23.27;;;9.73;;
18580;SDS011;9420;50.876;7.012;2024-01-06T11:08:30;18.87;;;11.03;;
18580;SDS011;9420;50.876;7.012;2024-01-06T11:10:59;17.43;;;8.90;;
18580;SDS011;9420;50.876;7.012;2024-01-06T11:13:26;17.57;;;9.63;;
18580;SDS011;9420;50.876;7.012;2024-01-06T11:15:55;16.70;;;8.93;;
18580;SDS011;9420;50.876;7.012;2024-01-06T11:18:31;18.03;;;9.30;;
18580;SDS011;9420;50.876;7.012;2024-01-06T11:21:15;17.57;;;9.27;;
18580;SDS011;9420;50.876;7.012;2024-01-06T11:26:40;15.77;;;9.00;;
18580;SDS011;9420;50.876;7.012;2024-01-06T11:29:08;14.83;;;9.03;;
18580;SDS011;9420;50.876;7.012;2024-01-06T11:31:37;12.13;;;7.20;;
18580;SDS011;9420;50.876;7.012;2024-01-06T11:34:12;19.93;;;10.43;;
18580;SDS011;9420;50.876;7.012;2024-01-06T11:36:40;15.20;;;8.57;;
18580;SDS011;9420;50.876;7.012;2024-01-06T11:39:15;17.73;;;9.10;;
18580;SDS011;9420;50.876;7.012;2024-01-06T11:42:00;16.87;;;9.17;;
18580;SDS011;9420;50.876;7.012;2024-01-06T11:44:27;19.07;;;10.30;;
18580;SDS011;9420;50.876;7.012;2024-01-06T11:46:56;15.67;;;9.53;;
18580;SDS011;9420;50.876;7.012;2024-01-06T11:49:23;22.03;;;9.90;;
18580;SDS011;9420;50.876;7.012;2024-01-06T11:51:53;19.03;;;9.03;;
18580;SDS011;9420;50.876;7.012;2024-01-06T11:54:20;17.57;;;9.40;;
18580;SDS011;9420;50.876;7.012;2024-01-06T11:56:47;19.17;;;9.10;;
18580;SDS011;9420;50.876;7.012;2024-01-06T11:59:14;16.90;;;10.03;;
18580;SDS011;9420;50.876;7.012;2024-01-06T12:01:40;21.67;;;11.93;;
18580;SDS011;9420;50.876;7.012;2024-01-06T12:04:08;21.00;;;10.70;;
18580;SDS011;9420;50.876;7.012;2024-01-06T12:06:40;19.40;;;10.27;;
18580;SDS011;9420;50.876;7.012;2024-01-06T12:09:07;18.87;;;10.27;;
18580;SDS011;9420;50.876;7.012;2024-01-06T12:11:35;18.97;;;11.00;;
18580;SDS011;9420;50.876;7.012;2024-01-06T12:14:02;18.83;;;9.67;;
18580;SDS011;9420;50.876;7.012;2024-01-06T12:16:29;17.17;;;10.20;;
18580;SDS011;9420;50.876;7.012;2024-01-06T12:18:58;21.47;;;10.30;;
18580;SDS011;9420;50.876;7.012;2024-01-06T12:21:27;20.73;;;10.83;;
18580;SDS011;9420;50.876;7.012;2024-01-06T12:23:54;18.57;;;10.47;;
18580;SDS011;9420;50.876;7.012;2024-01-06T12:26:21;20.50;;;10.27;;
18580;SDS011;9420;50.876;7.012;2024-01-06T12:28:48;15.87;;;9.20;;
18580;SDS011;9420;50.876;7.012;2024-01-06T12:31:16;17.67;;;8.90;;
18580;SDS011;9420;50.876;7.012;2024-01-06T12:33:44;15.77;;;8.23;;
18580;SDS011;9420;50.876;7.012;2024-01-06T12:36:11;19.93;;;9.07;;
18580;SDS011;9420;50.876;7.012;2024-01-06T12:38:39;15.60;;;8.47;;
18580;SDS011;9420;50.876;7.012;2024-01-06T12:41:08;13.07;;;7.70;;
18580;SDS011;9420;50.876;7.012;2024-01-06T12:43:36;18.77;;;9.87;;
18580;SDS011;9420;50.876;7.012;2024-01-06T12:46:03;18.30;;;10.33;;
18580;SDS011;9420;50.876;7.012;2024-01-06T12:48:29;18.17;;;9.37;;
18580;SDS011;9420;50.876;7.012;2024-01-06T12:50:56;17.87;;;10.27;;
18580;SDS011;9420;50.876;7.012;2024-01-06T12:53:22;18.50;;;9.50;;
18580;SDS011;9420;50.876;7.012;2024-01-06T12:55:50;18.07;;;9.50;;
18580;SDS011;9420;50.876;7.012;2024-01-06T12:58:17;20.27;;;10.73;;
18580;SDS011;9420;50.876;7.012;2024-01-06T13:00:43;18.30;;;9.87;;
18580;SDS011;9420;50.876;7.012;2024-01-06T13:03:10;20.40;;;10.57;;
18580;SDS011;9420;50.876;7.012;2024-01-06T13:05:38;22.93;;;11.80;;
18580;SDS011;9420;50.876;7.012;2024-01-06T13:08:05;24.57;;;11.40;;
18580;SDS011;9420;50.876;7.012;2024-01-06T13:10:32;22.43;;;11.53;;
18580;SDS011;9420;50.876;7.012;2024-01-06T13:13:00;20.73;;;11.10;;
18580;SDS011;9420;50.876;7.012;2024-01-06T13:15:27;22.90;;;11.07;;
18580;SDS011;9420;50.876;7.012;2024-01-06T13:17:54;16.57;;;8.83;;
18580;SDS011;9420;50.876;7.012;2024-01-06T13:20:22;20.43;;;9.83;;
18580;SDS011;9420;50.876;7.012;2024-01-06T13:22:48;19.53;;;10.40;;
18580;SDS011;9420;50.876;7.012;2024-01-06T13:25:16;24.80;;;11.00;;
18580;SDS011;9420;50.876;7.012;2024-01-06T13:27:44;19.70;;;10.03;;
18580;SDS011;9420;50.876;7.012;2024-01-06T13:30:13;21.53;;;10.37;;
18580;SDS011;9420;50.876;7.012;2024-01-06T13:32:41;20.40;;;9.87;;
18580;SDS011;9420;50.876;7.012;2024-01-06T13:35:08;20.90;;;10.77;;
18580;SDS011;9420;50.876;7.012;2024-01-06T13:37:37;25.60;;;10.83;;
18580;SDS011;9420;50.876;7.012;2024-01-06T13:40:04;25.00;;;12.38;;
18580;SDS011;9420;50.876;7.012;2024-01-06T13:42:32;22.40;;;10.33;;
18580;SDS011;9420;50.876;7.012;2024-01-06T13:44:59;18.67;;;10.00;;
18580;SDS011;9420;50.876;7.012;2024-01-06T13:47:29;24.73;;;11.07;;
18580;SDS011;9420;50.876;7.012;2024-01-06T13:49:56;24.25;;;13.45;;
18580;SDS011;9420;50.876;7.012;2024-01-06T13:52:22;30.45;;;11.93;;
18580;SDS011;9420;50.876;7.012;2024-01-06T13:54:49;20.47;;;11.13;;
18580;SDS011;9420;50.876;7.012;2024-01-06T13:57:15;22.03;;;10.80;;
18580;SDS011;9420;50.876;7.012;2024-01-06T13:59:42;25.80;;;12.80;;
18580;SDS011;9420;50.876;7.012;2024-01-06T14:02:08;24.83;;;12.97;;
18580;SDS011;9420;50.876;7.012;2024-01-06T14:04:38;31.90;;;14.97;;
18580;SDS011;9420;50.876;7.012;2024-01-06T14:07:05;29.20;;;14.43;;
18580;SDS011;9420;50.876;7.012;2024-01-06T14:09:32;30.40;;;15.37;;
18580;SDS011;9420;50.876;7.012;2024-01-06T14:11:58;33.37;;;17.10;;
18580;SDS011;9420;50.876;7.012;2024-01-06T14:14:25;33.40;;;15.97;;
18580;SDS011;9420;50.876;7.012;2024-01-06T14:16:52;30.87;;;14.17;;
18580;SDS011;9420;50.876;7.012;2024-01-06T14:19:18;28.33;;;13.30;;
18580;SDS011;9420;50.876;7.012;2024-01-06T14:21:46;26.17;;;13.93;;
18580;SDS011;9420;50.876;7.012;2024-01-06T14:24:13;35.63;;;13.73;;
18580;SDS011;9420;50.876;7.012;2024-01-06T14:26:39;33.63;;;15.17;;
18580;SDS011;9420;50.876;7.012;2024-01-06T14:29:07;33.70;;;15.43;;
18580;SDS011;9420;50.876;7.012;2024-01-06T14:31:34;30.97;;;14.80;;
18580;SDS011;9420;50.876;7.012;2024-01-06T14:34:00;36.00;;;15.60;;
18580;SDS011;9420;50.876;7.012;2024-01-06T14:36:28;35.53;;;16.17;;
18580;SDS011;9420;50.876;7.012;2024-01-06T14:38:55;28.73;;;15.47;;
18580;SDS011;9420;50.876;7.012;2024-01-06T14:41:22;41.67;;;16.80;;